Time;durP1;ratioP1;P1;durP2;ratioP2;P2;SDS_P1;SDS_P2;PMS_P1;PMS_P2;Temp;Humidity;BMP_temperature;BMP_pressure;BME280_temperature;BME280_humidity;BME280_pressure;Samples;Min_cycle;Max_cycle;Signal;HPM_P1;HPM_P2
2022/11/05 00:10:56;;;;;;;27.50;18.33;;;15.60;99.90;;;;;;5116163;28;20963;-78
2022/11/05 00:16:51;;;;;;;30.83;19.87;;;15.60;99.90;;;;;;5115629;28;20555;-78
2022/11/05 00:19:12;;;;;;;25.40;19.90;;;15.60;99.90;;;;;;5101993;28;20912;-70
2022/11/05 00:27:08;;;;;;;28.63;21.10;;;15.60;99.90;;;;;;5115523;28;20504;-70
2022/11/05 00:29:34;;;;;;;33.70;21.90;;;15.60;99.90;;;;;;5115806;28;20444;-70
2022/11/05 00:32:00;;;;;;;28.80;20.83;;;15.60;99.90;;;;;;5115596;28;20483;-69
2022/11/05 00:34:25;;;;;;;31.63;21.77;;;15.60;99.90;;;;;;5115718;28;20432;-77
2022/11/05 00:36:51;;;;;;;30.90;21.60;;;15.60;99.90;;;;;;5115480;28;20164;-76
2022/11/05 00:39:17;;;;;;;27.83;19.90;;;15.60;99.90;;;;;;5115644;28;20573;-69
2022/11/05 00:41:42;;;;;;;32.43;21.30;;;15.60;99.90;;;;;;5115426;28;20224;-77
2022/11/05 00:49:28;;;;;;;30.67;23.07;;;15.50;99.90;;;;;;5073506;28;20228;-70
2022/11/05 00:49:39;;;;;;;33.70;20.40;;;15.50;99.90;;;;;;5115442;28;20440;-78
2022/11/05 00:54:49;;;;;;;35.60;21.37;;;15.50;99.90;;;;;;5115645;28;20256;-77
2022/11/05 00:57:14;;;;;;;38.43;22.20;;;15.50;99.90;;;;;;5096699;28;20408;-71
2022/11/05 00:59:40;;;;;;;27.30;20.67;;;15.50;99.90;;;;;;5115491;28;20721;-77
2022/11/05 01:02:06;;;;;;;28.73;21.50;;;15.50;99.90;;;;;;5114976;28;20536;-76
2022/11/05 01:04:31;;;;;;;34.93;20.33;;;15.40;99.90;;;;;;5096817;28;20217;-70
2022/11/05 01:06:57;;;;;;;31.03;22.40;;;15.40;99.90;;;;;;5114774;28;20705;-75
2022/11/05 01:09:22;;;;;;;32.47;20.47;;;15.40;99.90;;;;;;5115021;28;20208;-70
2022/11/05 01:11:50;;;;;;;27.60;20.20;;;15.40;99.90;;;;;;5096516;28;20176;-75
2022/11/05 01:14:15;;;;;;;32.33;20.77;;;15.30;99.90;;;;;;5114963;28;20176;-70
2022/11/05 01:16:42;;;;;;;31.27;21.87;;;15.30;99.90;;;;;;5114686;28;20399;-72
2022/11/05 01:19:09;;;;;;;35.63;23.50;;;15.30;99.90;;;;;;5114403;28;20176;-77
2022/11/05 01:21:35;;;;;;;32.87;22.90;;;15.30;99.90;;;;;;5095938;28;20409;-77
2022/11/05 01:24:02;;;;;;;34.37;25.50;;;15.30;99.90;;;;;;5114536;28;20473;-70
2022/11/05 01:26:28;;;;;;;36.67;24.13;;;15.20;99.90;;;;;;5114499;28;20448;-69
2022/11/05 01:28:55;;;;;;;37.47;25.60;;;15.20;99.90;;;;;;5096532;28;20433;-70
2022/11/05 01:31:21;;;;;;;42.07;28.10;;;15.20;99.90;;;;;;5096394;28;20423;-71
2022/11/05 01:33:48;;;;;;;44.50;29.57;;;15.20;99.90;;;;;;5096294;28;20762;-77
2022/11/05 01:36:13;;;;;;;44.17;28.80;;;15.20;99.90;;;;;;5114424;28;20428;-70
2022/11/05 01:38:39;;;;;;;45.70;29.70;;;15.20;99.90;;;;;;5114677;28;20753;-69
2022/11/05 01:41:05;;;;;;;42.33;28.97;;;15.20;99.90;;;;;;5114407;28;20191;-70
2022/11/05 01:43:49;;;;;;;47.97;31.70;;;15.10;99.90;;;;;;5096083;28;20603;-70
2022/11/05 01:46:20;;;;;;;49.10;31.87;;;15.10;99.90;;;;;;5114238;28;20456;-70
2022/11/05 01:48:47;;;;;;;48.17;31.17;;;15.10;99.90;;;;;;5114657;28;20904;-70
2022/11/05 01:51:17;;;;;;;49.73;31.50;;;15.10;99.90;;;;;;5095888;28;20837;-77
2022/11/05 01:54:04;;;;;;;49.53;32.97;;;15.10;99.90;;;;;;5096067;28;20436;-77
2022/11/05 01:56:36;;;;;;;47.50;32.77;;;15.10;99.90;;;;;;5114047;28;20412;-77
2022/11/05 01:59:10;;;;;;;45.87;33.53;;;15.00;99.90;;;;;;5095965;28;20431;-72
2022/11/05 02:01:36;;;;;;;52.17;35.20;;;15.00;99.90;;;;;;5114268;28;20387;-70
2022/11/05 02:04:09;;;;;;;53.73;35.30;;;15.00;99.90;;;;;;5095730;28;20436;-76
2022/11/05 02:06:38;;;;;;;47.30;34.20;;;15.00;99.90;;;;;;5114097;28;20649;-70
2022/11/05 02:09:23;;;;;;;54.70;37.17;;;14.90;99.90;;;;;;5095830;28;20500;-69
2022/11/05 02:11:50;;;;;;;55.43;36.93;;;14.90;99.90;;;;;;5114141;28;20403;-70
2022/11/05 02:14:17;;;;;;;59.73;38.10;;;14.90;99.90;;;;;;5095746;28;20427;-77
2022/11/05 02:16:51;;;;;;;54.50;36.87;;;14.90;99.90;;;;;;5095682;28;20400;-77
2022/11/05 02:19:32;;;;;;;53.77;37.20;;;14.90;99.90;;;;;;5114259;28;20445;-70
2022/11/05 02:22:03;;;;;;;54.70;37.60;;;14.80;99.90;;;;;;5113869;28;20404;-70
2022/11/05 02:24:50;;;;;;;61.57;40.47;;;14.80;99.90;;;;;;5113750;28;20490;-77
2022/11/05 02:27:24;;;;;;;57.33;39.03;;;14.80;99.90;;;;;;5095536;28;20474;-70
2022/11/05 02:29:55;;;;;;;62.07;38.60;;;14.80;99.90;;;;;;5114277;28;20440;-76
2022/11/05 02:32:56;;;;;;;56.10;40.00;;;14.80;99.90;;;;;;5116700;28;20431;-70
2022/11/05 02:35:55;;;;;;;56.33;37.73;;;14.80;99.90;;;;;;5117738;28;20424;-75
2022/11/05 02:38:58;;;;;;;57.20;38.20;;;14.80;99.90;;;;;;5117824;28;20424;-70
2022/11/05 02:41:56;;;;;;;59.13;39.00;;;14.70;99.90;;;;;;5117625;28;20989;-76
2022/11/05 02:44:24;;;;;;;64.27;40.20;;;14.70;99.90;;;;;;5099356;28;20546;-70
2022/11/05 02:47:11;;;;;;;60.70;38.93;;;14.70;99.90;;;;;;5099128;28;20474;-75
2022/11/05 02:50:06;;;;;;;59.90;38.10;;;14.70;99.90;;;;;;5099089;28;20505;-70
2022/11/05 02:52:39;;;;;;;60.50;39.63;;;14.70;99.90;;;;;;5010417;28;20966;-76
2022/11/05 02:55:32;;;;;;;53.97;37.03;;;14.70;99.90;;;;;;5099110;28;20436;-76
2022/11/05 02:57:58;;;;;;;58.40;37.90;;;14.70;99.90;;;;;;5117455;28;20438;-76
2022/11/05 03:00:45;;;;;;;58.50;37.60;;;14.70;99.90;;;;;;5098911;28;20423;-70
2022/11/05 03:03:22;;;;;;;56.77;35.80;;;14.70;99.90;;;;;;5099044;28;20907;-76
2022/11/05 03:06:07;;;;;;;55.40;36.83;;;14.70;99.90;;;;;;5098972;28;20463;-70
2022/11/05 03:09:10;;;;;;;52.47;37.03;;;14.70;99.90;;;;;;5117211;28;20989;-76
2022/11/05 03:11:50;;;;;;;56.47;37.13;;;14.70;99.90;;;;;;5117220;28;20478;-76
2022/11/05 03:14:50;;;;;;;56.07;37.47;;;14.70;99.90;;;;;;5117361;28;20419;-76
2022/11/05 03:17:29;;;;;;;54.30;36.00;;;14.70;99.90;;;;;;5099020;28;20387;-76
2022/11/05 03:20:32;;;;;;;57.77;36.20;;;14.60;99.90;;;;;;5117373;28;20447;-77
2022/11/05 03:23:24;;;;;;;55.63;35.83;;;14.60;99.90;;;;;;5098512;28;20423;-71
2022/11/05 03:26:16;;;;;;;53.47;34.23;;;14.60;99.90;;;;;;5116880;28;20440;-70
2022/11/05 03:28:47;;;;;;;55.93;36.13;;;14.60;99.90;;;;;;5117142;28;20416;-74
2022/11/05 03:31:15;;;;;;;57.53;35.53;;;14.60;99.90;;;;;;5098545;28;20491;-77
2022/11/05 03:33:43;;;;;;;52.30;34.70;;;14.50;99.90;;;;;;5116948;28;20411;-70
2022/11/05 03:36:16;;;;;;;49.80;35.10;;;14.50;99.90;;;;;;5116621;28;20424;-77
2022/11/05 03:38:45;;;;;;;58.70;38.80;;;14.50;99.90;;;;;;5116870;28;20469;-77
2022/11/05 03:41:51;;;;;;;48.60;32.87;;;14.50;99.90;;;;;;5116464;28;20940;-76
2022/11/05 03:44:25;;;;;;;49.10;31.90;;;14.50;99.90;;;;;;5097036;28;20461;-69
2022/11/05 03:46:55;;;;;;;43.63;31.70;;;14.50;99.90;;;;;;5098117;28;20552;-70
2022/11/05 03:49:27;;;;;;;52.03;34.20;;;14.40;99.90;;;;;;5116904;28;20916;-69
2022/11/05 03:52:00;;;;;;;47.57;32.37;;;14.40;99.90;;;;;;5116382;28;20399;-77
2022/11/05 03:54:26;;;;;;;48.90;31.30;;;14.40;99.90;;;;;;5116678;28;20439;-76
2022/11/05 03:57:06;;;;;;;44.83;28.53;;;14.40;99.90;;;;;;5116405;28;20889;-70
2022/11/05 03:59:39;;;;;;;38.27;25.87;;;14.40;99.90;;;;;;5098098;28;20431;-77
2022/11/05 04:02:05;;;;;;;30.10;20.73;;;14.40;99.90;;;;;;5116184;28;20754;-76
2022/11/05 04:04:30;;;;;;;27.33;19.07;;;14.30;99.90;;;;;;5098027;28;20493;-70
2022/11/05 04:15:08;;;;;;;11.80;9.97;;;14.10;99.90;;;;;;5115868;28;20557;-69
2022/11/05 04:17:34;;;;;;;11.23;9.60;;;14.10;99.90;;;;;;5115969;28;20897;-73
2022/11/05 04:25:27;;;;;;;6.83;6.13;;;13.80;99.90;;;;;;5115552;28;20586;-76
2022/11/05 04:27:58;;;;;;;6.83;5.93;;;13.70;99.90;;;;;;5115490;28;20554;-76
2022/11/05 04:30:23;;;;;;;6.77;5.53;;;13.60;99.90;;;;;;5114330;28;20199;-76
2022/11/05 04:32:56;;;;;;;6.13;5.33;;;13.50;99.90;;;;;;5115519;28;20408;-76
2022/11/05 04:35:22;;;;;;;6.00;5.40;;;13.50;99.90;;;;;;5114132;28;20695;-73
2022/11/05 04:37:48;;;;;;;5.43;4.83;;;13.40;99.90;;;;;;5114225;28;20412;-76
2022/11/05 04:40:13;;;;;;;5.90;5.30;;;13.30;99.90;;;;;;5115413;28;20262;-76
2022/11/05 04:42:39;;;;;;;5.77;5.17;;;13.20;99.90;;;;;;5115302;28;20164;-69
2022/11/05 04:45:05;;;;;;;5.63;4.73;;;13.20;99.90;;;;;;5115159;28;20637;-71
2022/11/05 04:47:30;;;;;;;7.97;5.60;;;13.10;99.90;;;;;;5115199;28;20222;-71
2022/11/05 04:49:56;;;;;;;5.87;5.27;;;13.00;99.90;;;;;;5114090;28;20455;-70
2022/11/05 04:52:22;;;;;;;7.20;5.73;;;12.90;99.90;;;;;;5113961;28;20547;-69
2022/11/05 04:54:47;;;;;;;5.70;5.10;;;12.90;99.90;;;;;;5115382;28;20196;-76
2022/11/05 04:57:13;;;;;;;7.20;5.13;;;12.80;99.90;;;;;;5115189;28;20685;-75
2022/11/05 04:59:38;;;;;;;6.27;5.43;;;12.80;99.90;;;;;;5115097;28;20206;-70
2022/11/05 05:02:04;;;;;;;9.70;7.37;;;12.70;99.90;;;;;;5115047;28;20518;-75
2022/11/05 05:04:30;;;;;;;7.33;6.53;;;12.70;99.90;;;;;;5115375;28;20188;-76
2022/11/05 05:06:55;;;;;;;9.50;6.67;;;12.60;99.90;;;;;;5113620;28;20581;-76
2022/11/05 05:09:21;;;;;;;7.33;6.63;;;12.60;99.90;;;;;;5113860;28;20242;-69
2022/11/05 05:11:46;;;;;;;7.90;7.10;;;12.60;99.90;;;;;;5114874;28;20201;-74
2022/11/05 05:14:12;;;;;;;9.77;8.23;;;12.60;99.90;;;;;;5114982;28;20247;-75
2022/11/05 05:16:38;;;;;;;8.33;7.07;;;12.60;99.90;;;;;;5113545;28;20183;-75
2022/11/05 05:19:03;;;;;;;9.10;7.53;;;12.60;99.90;;;;;;5114844;28;20258;-69
2022/11/05 05:21:38;;;;;;;8.07;6.57;;;12.60;99.90;;;;;;5114651;28;20187;-70
2022/11/05 05:24:15;;;;;;;14.83;12.77;;;12.60;99.90;;;;;;5114405;28;20242;-76
2022/11/05 05:26:43;;;;;;;11.60;8.47;;;12.50;99.90;;;;;;5114529;28;20447;-76
2022/11/05 05:29:09;;;;;;;14.17;10.27;;;12.50;99.90;;;;;;5114383;28;20420;-76
2022/11/05 05:31:36;;;;;;;12.10;9.80;;;12.50;99.90;;;;;;5114528;28;20403;-70
2022/11/05 05:34:02;;;;;;;9.67;6.67;;;12.50;99.90;;;;;;5113290;28;20420;-76
2022/11/05 05:36:28;;;;;;;9.93;8.17;;;12.50;99.90;;;;;;5114362;28;20961;-76
2022/11/05 05:38:53;;;;;;;14.30;11.27;;;12.50;99.90;;;;;;5114628;28;20432;-70
2022/11/05 05:41:19;;;;;;;14.83;12.70;;;12.40;99.90;;;;;;5096054;28;20188;-76
2022/11/05 05:43:45;;;;;;;14.03;11.17;;;12.40;99.90;;;;;;5114242;28;20176;-70
2022/11/05 05:46:13;;;;;;;16.53;13.23;;;12.40;99.90;;;;;;5114198;28;20440;-70
2022/11/05 05:48:40;;;;;;;13.43;11.10;;;12.40;99.90;;;;;;5096135;28;20860;-76
2022/11/05 05:51:08;;;;;;;13.47;11.30;;;12.40;99.90;;;;;;5114168;28;20427;-76
2022/11/05 05:53:34;;;;;;;12.60;10.63;;;12.40;99.90;;;;;;5114468;28;20427;-76
2022/11/05 05:56:00;;;;;;;11.93;10.20;;;12.40;99.90;;;;;;5095826;28;20428;-70
2022/11/05 05:58:34;;;;;;;11.30;9.53;;;12.40;99.90;;;;;;5095954;28;20932;-69
2022/11/05 06:01:01;;;;;;;13.33;10.00;;;12.40;99.90;;;;;;5112846;28;20517;-70
2022/11/05 06:03:26;;;;;;;10.67;9.13;;;12.30;99.90;;;;;;5095866;28;20451;-72
2022/11/05 06:05:52;;;;;;;9.13;8.23;;;12.30;99.90;;;;;;5114510;28;20464;-70
2022/11/05 06:08:17;;;;;;;10.17;9.10;;;12.30;99.90;;;;;;5116972;28;20219;-76
2022/11/05 06:10:50;;;;;;;8.40;7.53;;;12.30;99.90;;;;;;5117017;28;20211;-76
2022/11/05 06:13:16;;;;;;;8.60;7.70;;;12.20;99.90;;;;;;5118453;28;20168;-69
2022/11/05 06:15:41;;;;;;;9.30;8.40;;;12.20;99.90;;;;;;5118204;28;20514;-69
2022/11/05 06:18:07;;;;;;;10.00;9.00;;;12.20;99.90;;;;;;5118141;28;20416;-70
2022/11/05 06:20:32;;;;;;;11.97;9.70;;;12.20;99.90;;;;;;5118087;28;20198;-75
2022/11/05 06:22:58;;;;;;;11.93;10.07;;;12.20;99.90;;;;;;5116839;28;20617;-70
2022/11/05 06:25:25;;;;;;;22.80;13.77;;;12.20;99.90;;;;;;5117776;28;20692;-69
2022/11/05 06:27:51;;;;;;;24.50;15.23;;;12.20;99.90;;;;;;5099623;28;20204;-73
2022/11/05 06:30:17;;;;;;;13.50;10.00;;;12.20;99.90;;;;;;5096735;28;20416;-76
2022/11/05 06:32:43;;;;;;;9.60;8.50;;;12.20;99.90;;;;;;5117299;28;20904;-69
2022/11/05 06:35:09;;;;;;;11.60;8.97;;;12.20;99.90;;;;;;5109344;28;20670;-69
2022/11/05 06:37:35;;;;;;;16.07;12.00;;;12.20;99.90;;;;;;5079787;28;20409;-70
2022/11/05 06:40:01;;;;;;;19.63;13.93;;;12.20;99.90;;;;;;5097497;28;20447;-71
2022/11/05 06:42:26;;;;;;;10.83;8.40;;;12.20;99.90;;;;;;5097248;28;20169;-71
2022/11/05 06:44:52;;;;;;;11.13;8.17;;;12.30;99.90;;;;;;5097556;28;20200;-71
2022/11/05 06:47:18;;;;;;;11.47;9.23;;;12.20;99.90;;;;;;5078816;28;20220;-70
2022/11/05 06:49:45;;;;;;;14.50;10.13;;;12.30;99.90;;;;;;5097411;28;20202;-71
2022/11/05 06:52:12;;;;;;;9.53;8.00;;;12.30;99.90;;;;;;5096999;28;20401;-70
2022/11/05 06:54:38;;;;;;;10.03;8.27;;;12.30;99.90;;;;;;5097058;28;20537;-70
2022/11/05 06:57:05;;;;;;;13.50;9.33;;;12.30;99.90;;;;;;5095855;28;20457;-70
2022/11/05 06:59:30;;;;;;;12.67;9.13;;;12.30;99.90;;;;;;5095836;28;20452;-70
2022/11/05 07:01:56;;;;;;;9.67;7.90;;;12.30;99.90;;;;;;5096167;28;20421;-72
2022/11/05 07:04:22;;;;;;;10.20;8.43;;;12.30;99.90;;;;;;5114504;28;20203;-72
2022/11/05 07:06:47;;;;;;;9.53;8.03;;;12.30;99.90;;;;;;5098678;28;20841;-73
2022/11/05 07:09:13;;;;;;;9.57;8.57;;;12.20;99.90;;;;;;5117042;28;20225;-73
2022/11/05 07:11:39;;;;;;;10.57;8.27;;;12.30;99.90;;;;;;5116837;28;20247;-70
2022/11/05 07:14:04;;;;;;;9.90;8.30;;;12.30;99.90;;;;;;5116786;28;20179;-79
2022/11/05 07:16:30;;;;;;;9.63;8.00;;;12.20;99.90;;;;;;5098372;28;20180;-77
2022/11/05 07:18:56;;;;;;;9.30;8.23;;;12.30;99.90;;;;;;5116649;28;20258;-70
2022/11/05 07:21:21;;;;;;;8.20;7.30;;;12.30;99.90;;;;;;5098186;28;20287;-80
2022/11/05 07:23:47;;;;;;;8.50;5.63;;;12.20;99.90;;;;;;5098000;28;20232;-78
2022/11/05 07:26:13;;;;;;;8.30;7.00;;;12.20;99.90;;;;;;5097748;28;20556;-70
2022/11/05 07:28:38;;;;;;;8.17;6.60;;;12.20;99.90;;;;;;5115706;28;20196;-70
2022/11/05 07:31:04;;;;;;;9.70;7.60;;;12.20;99.90;;;;;;5096604;28;20284;-70
2022/11/05 07:33:30;;;;;;;9.27;7.10;;;12.20;99.90;;;;;;5116004;28;20639;-69
2022/11/05 07:35:56;;;;;;;13.27;9.80;;;12.20;99.90;;;;;;5115985;28;20245;-70
2022/11/05 07:38:22;;;;;;;11.77;8.93;;;12.30;99.90;;;;;;5097504;28;20192;-69
2022/11/05 07:40:47;;;;;;;11.00;9.50;;;12.30;99.90;;;;;;5115957;28;20420;-70
2022/11/05 07:43:13;;;;;;;14.97;10.90;;;12.20;99.90;;;;;;5115604;28;20223;-69
2022/11/05 07:45:38;;;;;;;18.80;13.00;;;12.20;99.90;;;;;;5115679;28;20191;-71
2022/11/05 07:48:04;;;;;;;10.97;8.60;;;12.20;99.90;;;;;;5097745;28;20223;-77
2022/11/05 07:50:35;;;;;;;13.07;10.03;;;12.30;99.90;;;;;;5115921;28;20191;-71
2022/11/05 07:53:06;;;;;;;9.43;8.50;;;12.20;99.90;;;;;;5115764;28;20214;-69
2022/11/05 07:55:32;;;;;;;8.33;7.53;;;12.20;99.90;;;;;;5115766;28;20825;-70
2022/11/05 07:57:58;;;;;;;8.67;7.30;;;12.20;99.90;;;;;;5096507;28;20423;-70
2022/11/05 08:00:25;;;;;;;9.23;7.80;;;12.20;99.90;;;;;;5115185;28;20445;-70
2022/11/05 08:03:07;;;;;;;8.50;7.70;;;12.20;99.90;;;;;;5096850;28;20420;-70
2022/11/05 08:05:37;;;;;;;10.73;8.07;;;12.30;99.90;;;;;;5115247;28;20431;-70
2022/11/05 08:08:04;;;;;;;9.83;8.00;;;12.20;99.90;;;;;;5115306;28;20479;-69
2022/11/05 08:10:31;;;;;;;8.50;7.40;;;12.20;99.90;;;;;;5114949;28;20600;-70
2022/11/05 08:12:56;;;;;;;8.90;7.63;;;12.20;99.90;;;;;;5115222;28;20415;-70
2022/11/05 08:15:23;;;;;;;9.60;7.90;;;12.20;99.90;;;;;;5114922;28;20427;-70
2022/11/05 08:17:49;;;;;;;7.27;6.57;;;12.10;99.90;;;;;;5096557;28;20641;-70
2022/11/05 08:20:15;;;;;;;9.67;7.63;;;12.10;99.90;;;;;;5096578;28;20424;-77
2022/11/05 08:22:42;;;;;;;13.30;9.27;;;12.20;99.90;;;;;;5096415;28;20940;-75
2022/11/05 08:25:08;;;;;;;11.33;9.67;;;12.10;99.90;;;;;;5096442;28;20474;-77
2022/11/05 08:27:34;;;;;;;9.93;8.07;;;12.20;99.90;;;;;;5096922;28;20471;-78
2022/11/05 08:30:00;;;;;;;10.27;9.17;;;12.20;99.90;;;;;;5096252;28;20208;-77
2022/11/05 08:32:25;;;;;;;11.20;9.13;;;12.20;99.90;;;;;;5114719;28;20769;-73
2022/11/05 08:34:51;;;;;;;24.50;16.70;;;12.20;99.90;;;;;;5096381;28;20256;-75
2022/11/05 08:37:16;;;;;;;39.40;20.10;;;12.20;99.90;;;;;;5102298;28;20544;-73
2022/11/05 08:39:42;;;;;;;74.73;29.87;;;12.20;99.90;;;;;;5089640;28;20195;-73
2022/11/05 08:42:07;;;;;;;21.40;12.70;;;12.20;99.90;;;;;;5111190;28;20913;-74
2022/11/05 08:44:33;;;;;;;24.63;12.37;;;12.20;99.90;;;;;;5106500;28;20216;-74
2022/11/05 08:46:59;;;;;;;26.70;15.90;;;12.20;99.90;;;;;;5100224;28;20208;-75
2022/11/05 08:49:25;;;;;;;19.90;13.63;;;12.20;99.90;;;;;;5114833;28;20210;-73
2022/11/05 08:51:50;;;;;;;35.03;21.27;;;12.20;99.90;;;;;;5099722;28;20184;-70
2022/11/05 08:54:16;;;;;;;14.07;10.97;;;12.30;99.90;;;;;;5094172;28;20252;-70
2022/11/05 08:56:41;;;;;;;25.80;14.30;;;12.30;99.90;;;;;;5094019;28;20178;-70
2022/11/05 08:59:07;;;;;;;14.10;10.90;;;12.30;99.90;;;;;;5078290;28;20184;-70
2022/11/05 09:01:33;;;;;;;12.30;9.00;;;12.30;99.90;;;;;;5095868;28;20259;-73
2022/11/05 09:03:59;;;;;;;11.40;9.17;;;12.30;99.90;;;;;;5114680;28;20176;-73
2022/11/05 09:06:24;;;;;;;14.30;10.13;;;12.30;99.90;;;;;;5107084;28;20547;-72
2022/11/05 09:08:50;;;;;;;14.20;9.37;;;12.30;99.90;;;;;;5114438;28;20192;-73
2022/11/05 09:11:17;;;;;;;14.17;8.70;;;12.30;99.90;;;;;;5108118;28;20200;-74
2022/11/05 09:13:42;;;;;;;15.80;9.20;;;12.40;99.90;;;;;;5101181;28;20534;-75
2022/11/05 09:16:21;;;;;;;14.50;10.47;;;12.40;99.90;;;;;;5088668;28;20429;-70
2022/11/05 09:18:48;;;;;;;16.60;12.30;;;12.40;99.90;;;;;;5110184;28;20435;-70
2022/11/05 09:21:15;;;;;;;13.33;9.37;;;12.40;99.90;;;;;;5113580;28;20431;-70
2022/11/05 09:23:40;;;;;;;13.40;10.03;;;12.40;99.90;;;;;;5113022;28;20475;-69
2022/11/05 09:26:06;;;;;;;36.47;22.17;;;12.40;99.90;;;;;;5094773;28;20428;-73
2022/11/05 09:28:32;;;;;;;19.50;12.80;;;12.40;99.90;;;;;;5111796;28;20260;-72
2022/11/05 09:30:59;;;;;;;19.30;13.80;;;12.50;99.90;;;;;;5111847;28;20195;-70
2022/11/05 09:33:25;;;;;;;12.20;10.33;;;12.50;99.90;;;;;;5093157;28;20467;-72
2022/11/05 09:35:52;;;;;;;14.90;11.70;;;12.50;99.90;;;;;;5111373;28;20431;-71
2022/11/05 09:38:18;;;;;;;17.70;12.40;;;12.50;99.90;;;;;;5093151;28;20420;-72
2022/11/05 09:40:56;;;;;;;16.37;12.47;;;12.50;99.90;;;;;;5110750;28;20491;-73
2022/11/05 09:43:29;;;;;;;13.13;10.47;;;12.50;99.90;;;;;;5095263;28;20454;-69
2022/11/05 09:45:57;;;;;;;18.80;13.63;;;12.50;99.90;;;;;;5113552;28;20996;-70
2022/11/05 09:48:27;;;;;;;14.17;10.77;;;12.50;99.90;;;;;;5113368;28;20609;-70
2022/11/05 09:50:53;;;;;;;11.93;10.60;;;12.50;99.90;;;;;;5113632;28;20408;-70
2022/11/05 09:53:22;;;;;;;13.57;11.07;;;12.50;99.90;;;;;;5113591;28;20443;-70
2022/11/05 09:55:59;;;;;;;8.13;7.30;;;12.50;99.90;;;;;;5111665;28;20469;-70
2022/11/05 09:58:59;;;;;;;14.33;12.40;;;12.50;99.90;;;;;;5112745;28;20423;-70
2022/11/05 10:01:32;;;;;;;18.00;14.37;;;12.50;99.90;;;;;;5113261;28;20420;-72
2022/11/05 10:04:01;;;;;;;23.93;16.90;;;12.60;99.90;;;;;;5113554;28;20416;-72
2022/11/05 10:06:27;;;;;;;22.00;14.77;;;12.60;99.90;;;;;;5113124;28;20402;-70
2022/11/05 10:09:13;;;;;;;12.03;8.43;;;12.60;99.90;;;;;;5113572;28;20427;-73
2022/11/05 10:11:53;;;;;;;24.67;18.10;;;12.60;99.90;;;;;;5086383;28;20413;-70
2022/11/05 10:14:34;;;;;;;16.60;13.23;;;12.60;99.90;;;;;;5107818;28;20469;-70
2022/11/05 10:17:07;;;;;;;27.90;20.23;;;12.60;99.90;;;;;;5101317;28;20511;-70
2022/11/05 10:19:50;;;;;;;16.40;14.27;;;12.60;99.90;;;;;;5079031;28;20453;-70
2022/11/05 10:22:18;;;;;;;15.73;14.03;;;12.60;99.90;;;;;;5090310;28;20495;-69
2022/11/05 10:24:46;;;;;;;20.13;16.10;;;12.70;99.90;;;;;;5107538;28;20980;-70
2022/11/05 10:27:23;;;;;;;11.80;10.30;;;12.70;99.90;;;;;;5098995;28;20468;-70
2022/11/05 10:29:49;;;;;;;10.93;8.03;;;12.70;99.90;;;;;;5100629;28;20463;-70
2022/11/05 10:32:37;;;;;;;10.10;8.23;;;12.70;99.90;;;;;;5099399;28;20409;-70
2022/11/05 10:35:06;;;;;;;11.10;8.37;;;12.70;99.90;;;;;;5102178;28;20440;-69
2022/11/05 10:37:32;;;;;;;11.33;8.00;;;12.80;99.90;;;;;;5112924;28;20499;-70
2022/11/05 10:39:59;;;;;;;8.13;7.30;;;12.80;99.90;;;;;;5112185;28;20471;-71
2022/11/05 10:42:52;;;;;;;9.17;7.83;;;12.80;99.90;;;;;;5093010;28;20404;-70
2022/11/05 10:45:42;;;;;;;11.80;8.33;;;12.80;99.90;;;;;;5109691;28;20963;-70
2022/11/05 10:48:22;;;;;;;9.77;7.13;;;12.80;99.90;;;;;;5103926;28;20450;-70
2022/11/05 10:50:48;;;;;;;8.93;7.33;;;12.80;99.90;;;;;;5092920;28;20428;-72
2022/11/05 10:53:26;;;;;;;12.20;6.80;;;12.80;99.90;;;;;;5114076;28;20427;-72
2022/11/05 10:55:52;;;;;;;11.20;7.67;;;12.90;99.90;;;;;;5115375;28;20209;-71
2022/11/05 10:58:27;;;;;;;9.47;7.23;;;12.90;99.90;;;;;;5109151;28;20573;-72
2022/11/05 11:00:53;;;;;;;11.53;6.73;;;12.90;99.90;;;;;;5074288;28;20436;-71
2022/11/05 11:03:42;;;;;;;9.87;7.40;;;12.90;99.90;;;;;;5073687;28;20440;-72
2022/11/05 11:06:24;;;;;;;9.37;7.17;;;12.90;99.90;;;;;;5099434;28;20235;-72
2022/11/05 11:08:53;;;;;;;7.93;7.13;;;13.00;99.90;;;;;;5101553;28;20452;-71
2022/11/05 11:11:32;;;;;;;9.90;7.10;;;13.00;99.90;;;;;;5097345;28;20493;-72
2022/11/05 11:14:05;;;;;;;10.87;7.27;;;13.00;99.90;;;;;;5108663;28;20431;-72
2022/11/05 11:16:50;;;;;;;9.40;7.33;;;13.00;99.90;;;;;;5115634;28;20432;-72
2022/11/05 11:19:26;;;;;;;11.10;8.30;;;13.10;99.90;;;;;;5115277;28;20412;-72
2022/11/05 11:22:12;;;;;;;19.73;15.07;;;13.10;99.90;;;;;;5106719;28;20428;-72
2022/11/05 11:24:44;;;;;;;11.97;8.30;;;13.10;99.90;;;;;;5096577;28;20520;-73
2022/11/05 11:27:28;;;;;;;9.77;7.90;;;13.20;99.90;;;;;;5092709;28;20455;-74
2022/11/05 11:30:02;;;;;;;9.70;7.03;;;13.20;99.90;;;;;;5091020;28;20456;-73
2022/11/05 11:32:37;;;;;;;8.33;7.40;;;13.20;99.90;;;;;;5111785;28;20415;-74
2022/11/05 11:35:05;;;;;;;11.57;8.30;;;13.20;99.90;;;;;;5111437;28;20450;-73
2022/11/05 11:37:34;;;;;;;9.83;7.40;;;13.30;99.90;;;;;;5076883;28;20428;-73
2022/11/05 11:40:10;;;;;;;10.30;8.40;;;13.30;99.90;;;;;;5082377;28;20448;-73
2022/11/05 11:42:39;;;;;;;8.87;7.60;;;13.30;99.90;;;;;;5077055;28;20443;-74
2022/11/05 11:45:14;;;;;;;9.13;7.73;;;13.40;99.90;;;;;;5104453;28;20448;-74
2022/11/05 11:47:44;;;;;;;12.00;7.63;;;13.40;99.90;;;;;;5095463;28;20448;-73
2022/11/05 11:50:45;;;;;;;11.63;8.70;;;13.40;99.90;;;;;;5074446;28;20444;-75
2022/11/05 11:53:19;;;;;;;12.33;8.17;;;13.40;99.90;;;;;;5076593;28;20429;-75
2022/11/05 11:55:54;;;;;;;10.33;8.03;;;13.40;99.90;;;;;;5103119;28;20835;-76
2022/11/05 11:58:22;;;;;;;24.80;16.33;;;13.50;99.90;;;;;;5104102;28;20479;-73
2022/11/05 12:01:19;;;;;;;33.50;20.23;;;13.50;99.90;;;;;;5084385;28;20478;-73
2022/11/05 12:04:04;;;;;;;14.00;9.53;;;13.50;99.90;;;;;;5092010;28;20429;-73
2022/11/05 12:06:52;;;;;;;15.83;10.17;;;13.50;99.90;;;;;;5105505;28;20404;-75
2022/11/05 12:09:30;;;;;;;14.60;12.13;;;13.50;99.90;;;;;;5095110;28;20504;-74
2022/11/05 12:12:15;;;;;;;32.40;19.93;;;13.50;99.90;;;;;;5113241;28;20821;-74
2022/11/05 12:14:40;;;;;;;173.13;96.33;;;13.50;99.90;;;;;;5110119;28;20478;-74
2022/11/05 12:17:22;;;;;;;54.30;38.50;;;13.50;99.90;;;;;;5084686;28;20428;-73
2022/11/05 12:20:14;;;;;;;33.23;21.30;;;13.50;99.90;;;;;;5113397;28;20195;-73
2022/11/05 12:23:01;;;;;;;43.47;25.00;;;13.60;99.90;;;;;;5112889;28;20502;-74
2022/11/05 12:25:40;;;;;;;26.53;16.73;;;13.60;99.90;;;;;;5084537;28;20488;-74
2022/11/05 12:28:31;;;;;;;15.17;12.43;;;13.60;99.90;;;;;;5091726;28;20866;-74
2022/11/05 12:31:58;;;;;;;22.23;14.93;;;13.50;99.90;;;;;;5112539;28;20488;-75
2022/11/05 12:34:42;;;;;;;19.97;15.20;;;13.50;99.90;;;;;;5028875;28;20482;-74
2022/11/05 12:37:22;;;;;;;18.80;11.90;;;13.60;99.90;;;;;;5028371;28;20443;-74
2022/11/05 12:39:53;;;;;;;17.57;13.53;;;13.60;99.90;;;;;;5099124;28;20451;-75
2022/11/05 12:42:41;;;;;;;25.40;15.50;;;13.60;99.90;;;;;;5111125;28;20432;-74
2022/11/05 12:45:27;;;;;;;14.17;11.97;;;13.60;99.90;;;;;;5112243;28;20920;-73
2022/11/05 12:48:30;;;;;;;12.10;8.53;;;13.60;99.90;;;;;;5094214;28;20463;-74
2022/11/05 12:51:25;;;;;;;12.80;8.87;;;13.60;99.90;;;;;;5082495;28;20439;-74
2022/11/05 12:54:14;;;;;;;11.33;8.20;;;13.60;99.90;;;;;;5112881;28;20424;-74
2022/11/05 12:56:57;;;;;;;13.87;10.53;;;13.60;99.90;;;;;;5112543;28;20404;-74
2022/11/05 12:59:50;;;;;;;11.03;9.50;;;13.60;99.90;;;;;;5111140;28;20948;-74
2022/11/05 13:02:22;;;;;;;9.60;8.47;;;13.60;99.90;;;;;;5110245;28;20392;-75
2022/11/05 13:05:07;;;;;;;16.07;14.20;;;13.60;99.90;;;;;;5111693;28;20478;-74
2022/11/05 13:07:38;;;;;;;16.63;10.27;;;13.60;99.90;;;;;;5111855;28;20542;-75
2022/11/05 13:10:33;;;;;;;12.13;8.10;;;13.60;99.90;;;;;;5095542;28;20465;-72
2022/11/05 13:13:28;;;;;;;11.67;8.77;;;13.70;99.90;;;;;;5095762;28;20416;-73
2022/11/05 13:16:24;;;;;;;11.10;8.73;;;13.70;99.90;;;;;;5059381;28;20490;-72
2022/11/05 13:19:03;;;;;;;9.27;7.77;;;13.70;99.90;;;;;;5095700;28;20940;-73
2022/11/05 13:21:30;;;;;;;8.67;7.70;;;13.70;99.90;;;;;;5113715;28;20384;-71
2022/11/05 13:24:10;;;;;;;8.90;8.00;;;13.70;99.90;;;;;;5113607;28;20452;-70
2022/11/05 13:26:47;;;;;;;7.67;6.50;;;13.80;99.90;;;;;;5113972;28;20440;-70
2022/11/05 13:29:26;;;;;;;11.67;8.47;;;13.80;99.90;;;;;;5095554;28;20498;-70
2022/11/05 13:32:00;;;;;;;11.50;9.30;;;13.80;99.90;;;;;;5113872;28;20388;-71
2022/11/05 13:34:26;;;;;;;25.10;16.27;;;13.80;99.90;;;;;;5114107;28;20432;-73
2022/11/05 13:40:00;;;;;;;19.87;15.80;;;13.90;99.90;;;;;;5113241;28;20275;-74